createdAt,value
2023-05-23T00:02:16.734Z,7.20
2023-05-23T00:04:44.385Z,8.60
2023-05-23T00:07:11.620Z,11.70
2023-05-23T00:09:38.851Z,9.80
2023-05-23T00:12:07.074Z,8.43
2023-05-23T00:14:35.546Z,13.90
2023-05-23T00:17:02.931Z,12.40
2023-05-23T00:19:30.270Z,9.93
2023-05-23T00:21:58.590Z,13.67
2023-05-23T00:24:26.023Z,8.93
2023-05-23T00:26:53.270Z,7.43
2023-05-23T00:29:20.901Z,8.77
2023-05-23T00:31:48.075Z,7.93
2023-05-23T00:34:17.804Z,9.40
2023-05-23T00:36:47.899Z,14.10
2023-05-23T00:39:20.961Z,13.73
2023-05-23T00:41:53.155Z,9.63
2023-05-23T00:44:22.051Z,11.97
2023-05-23T00:46:56.724Z,17.83
2023-05-23T00:49:24.666Z,20.03
2023-05-23T00:51:52.661Z,12.03
2023-05-23T00:54:25.639Z,15.97
2023-05-23T00:56:53.512Z,13.43
2023-05-23T00:59:22.880Z,16.20
2023-05-23T01:01:52.985Z,11.37
2023-05-23T01:04:20.670Z,15.47
2023-05-23T01:06:49.104Z,13.90
2023-05-23T01:09:18.081Z,9.20
2023-05-23T01:12:25.427Z,25.03
2023-05-23T01:15:11.367Z,13.67
2023-05-23T01:18:10.855Z,17.33
2023-05-23T01:20:54.201Z,18.63
2023-05-23T01:23:36.436Z,13.70
2023-05-23T01:26:26.316Z,15.87
2023-05-23T01:29:10.204Z,15.30
2023-05-23T01:31:43.597Z,14.53
2023-05-23T01:34:15.106Z,14.50
2023-05-23T01:36:43.810Z,12.70
2023-05-23T01:39:12.055Z,9.80
2023-05-23T01:41:39.190Z,9.13
2023-05-23T01:44:06.354Z,13.17
2023-05-23T01:46:34.715Z,8.00
2023-05-23T01:49:04.452Z,11.57
2023-05-23T01:51:34.272Z,11.30
2023-05-23T01:54:02.369Z,10.80
2023-05-23T01:56:30.736Z,16.17
2023-05-23T01:58:58.720Z,14.80
2023-05-23T02:01:26.076Z,12.30
2023-05-23T02:03:53.694Z,16.23
2023-05-23T02:06:21.325Z,15.17
2023-05-23T02:08:48.388Z,12.07
2023-05-23T02:11:16.090Z,11.27
2023-05-23T02:13:43.207Z,12.03
2023-05-23T02:16:10.638Z,12.20
2023-05-23T02:18:38.391Z,15.10
2023-05-23T02:21:06.654Z,10.20
2023-05-23T02:23:33.915Z,13.30
2023-05-23T02:26:01.033Z,8.57
2023-05-23T02:28:28.220Z,10.83
2023-05-23T02:30:55.451Z,7.90
2023-05-23T02:33:22.837Z,10.70
2023-05-23T02:35:51.799Z,7.37
2023-05-23T02:38:20.769Z,9.10
2023-05-23T02:40:50.435Z,11.67
2023-05-23T02:43:17.992Z,7.20
2023-05-23T02:45:45.284Z,9.30
2023-05-23T02:48:12.500Z,8.30
2023-05-23T02:50:39.848Z,10.60
2023-05-23T02:53:07.216Z,13.60
2023-05-23T02:55:34.432Z,8.13
2023-05-23T02:58:01.585Z,9.37
2023-05-23T03:00:28.709Z,12.03
2023-05-23T03:02:58.222Z,10.80
2023-05-23T03:05:25.389Z,9.83
2023-05-23T03:07:52.512Z,8.00
2023-05-23T03:10:19.623Z,8.70
2023-05-23T03:12:47.415Z,9.73
2023-05-23T03:15:16.657Z,8.87
2023-05-23T03:17:44.978Z,8.10
2023-05-23T03:20:12.154Z,6.77
2023-05-23T03:22:39.439Z,7.77
2023-05-23T03:25:07.276Z,6.97
2023-05-23T03:27:34.437Z,11.73
2023-05-23T03:30:03.542Z,7.40
2023-05-23T03:32:30.766Z,7.30
2023-05-23T03:34:57.879Z,9.10
2023-05-23T03:37:25.007Z,6.37
2023-05-23T03:39:52.127Z,16.97
2023-05-23T03:42:19.487Z,8.23
2023-05-23T03:44:46.607Z,8.30
2023-05-23T03:47:13.732Z,7.73
2023-05-23T03:49:45.206Z,8.03
2023-05-23T03:52:12.723Z,13.60
2023-05-23T03:54:40.217Z,9.33
2023-05-23T03:57:08.440Z,8.83
2023-05-23T03:59:37.032Z,10.00
2023-05-23T04:02:07.840Z,12.47
2023-05-23T04:04:36.267Z,10.33
2023-05-23T04:07:05.643Z,14.57
2023-05-23T04:09:33.098Z,13.57
2023-05-23T04:12:01.108Z,15.70
2023-05-23T04:14:29.361Z,17.07
2023-05-23T04:16:59.064Z,21.03
2023-05-23T04:19:26.860Z,18.33
2023-05-23T04:21:54.138Z,10.37
2023-05-23T04:24:21.487Z,9.17
2023-05-23T04:26:49.785Z,12.13
2023-05-23T04:29:17.068Z,9.77
2023-05-23T04:31:46.019Z,7.60
2023-05-23T04:34:13.576Z,8.80
2023-05-23T04:36:40.730Z,11.87
2023-05-23T04:39:08.528Z,10.30
2023-05-23T04:41:41.273Z,8.20
2023-05-23T04:44:30.340Z,11.63
2023-05-23T04:47:12.300Z,29.70
2023-05-23T04:49:57.580Z,9.70
2023-05-23T04:52:25.565Z,9.10
2023-05-23T04:54:54.207Z,13.10
2023-05-23T04:57:22.186Z,8.13
2023-05-23T04:59:49.469Z,15.07
2023-05-23T05:02:16.602Z,10.63
2023-05-23T05:04:44.614Z,13.83
2023-05-23T05:07:11.901Z,8.67
2023-05-23T05:09:39.657Z,6.53
2023-05-23T05:12:08.017Z,13.70
2023-05-23T05:14:35.218Z,8.80
2023-05-23T05:17:02.928Z,12.13
2023-05-23T05:19:38.085Z,8.73
2023-05-23T05:22:08.083Z,9.73
2023-05-23T05:24:35.601Z,11.70
2023-05-23T05:27:03.529Z,12.90
2023-05-23T05:29:31.368Z,12.40
2023-05-23T05:31:58.736Z,15.80
2023-05-23T05:34:26.990Z,17.83
2023-05-23T05:36:56.478Z,10.23
2023-05-23T05:39:26.489Z,13.57
2023-05-23T05:41:54.408Z,11.27
2023-05-23T05:44:21.597Z,13.10
2023-05-23T05:46:48.979Z,13.50
2023-05-23T05:49:16.288Z,14.43
2023-05-23T05:51:45.734Z,17.23
2023-05-23T05:54:13.190Z,15.43
2023-05-23T05:56:40.601Z,13.80
2023-05-23T05:59:07.905Z,14.57
2023-05-23T06:01:35.916Z,21.63
2023-05-23T06:04:03.369Z,17.93
2023-05-23T06:06:32.342Z,18.03
2023-05-23T06:08:59.968Z,19.90
2023-05-23T06:11:27.091Z,23.27
2023-05-23T06:13:54.290Z,24.40
2023-05-23T06:16:21.558Z,22.30
2023-05-23T06:18:49.011Z,24.03
2023-05-23T06:21:16.487Z,33.33
2023-05-23T06:23:43.854Z,26.13
2023-05-23T06:26:12.282Z,22.00
2023-05-23T06:28:42.178Z,22.53
2023-05-23T06:31:12.660Z,20.27
2023-05-23T06:33:39.853Z,25.90
2023-05-23T06:36:07.296Z,20.00
2023-05-23T06:38:34.403Z,21.00
2023-05-23T06:41:02.411Z,19.90
2023-05-23T06:43:30.500Z,20.10
2023-05-23T06:46:12.964Z,21.13
2023-05-23T06:48:40.122Z,28.70
2023-05-23T06:51:07.452Z,18.40
2023-05-23T06:53:34.570Z,18.63
2023-05-23T06:56:01.817Z,20.50
2023-05-23T06:58:31.747Z,21.03
2023-05-23T07:01:00.925Z,18.47
2023-05-23T07:03:33.361Z,19.20
2023-05-23T07:06:05.150Z,15.93
2023-05-23T07:08:32.526Z,16.53
2023-05-23T07:11:01.472Z,15.70
2023-05-23T07:13:32.921Z,14.60
2023-05-23T07:16:00.654Z,17.37
2023-05-23T07:18:27.858Z,17.70
2023-05-23T07:20:57.296Z,14.63
2023-05-23T07:23:25.930Z,14.77
2023-05-23T07:26:01.700Z,14.10
2023-05-23T07:28:38.061Z,16.77
2023-05-23T07:31:05.359Z,15.40
2023-05-23T07:33:34.579Z,17.43
2023-05-23T07:36:04.453Z,15.10
2023-05-23T07:38:31.602Z,15.60
2023-05-23T07:41:10.515Z,15.40
2023-05-23T07:43:38.640Z,14.80
2023-05-23T07:46:06.250Z,14.37
2023-05-23T07:48:33.791Z,14.13
2023-05-23T07:51:01.302Z,13.40
2023-05-23T07:53:29.217Z,15.10
2023-05-23T07:55:56.884Z,13.73
2023-05-23T07:58:27.372Z,13.47
2023-05-23T08:00:54.443Z,12.80
2023-05-23T08:04:00.222Z,12.43
2023-05-23T08:06:34.569Z,11.83
2023-05-23T08:09:06.819Z,16.20
2023-05-23T08:11:38.029Z,14.43
2023-05-23T08:14:06.504Z,14.30
2023-05-23T08:16:39.547Z,16.77
2023-05-23T08:19:14.855Z,17.87
2023-05-23T08:21:42.653Z,15.30
2023-05-23T08:24:09.867Z,14.63
2023-05-23T08:26:39.656Z,15.07
2023-05-23T08:29:10.629Z,17.53
2023-05-23T08:31:38.045Z,15.10
2023-05-23T08:34:08.091Z,16.33
2023-05-23T08:36:37.471Z,15.50
2023-05-23T08:39:07.018Z,12.13
2023-05-23T08:41:40.100Z,13.73
2023-05-23T08:44:11.227Z,13.47
2023-05-23T08:46:47.667Z,16.83
2023-05-23T08:49:29.142Z,19.50
2023-05-23T08:52:01.994Z,14.93
2023-05-23T08:54:32.677Z,15.40
2023-05-23T08:57:01.001Z,18.10
2023-05-23T08:59:30.458Z,18.53
2023-05-23T09:01:58.556Z,16.83
2023-05-23T09:04:26.436Z,16.10
2023-05-23T09:07:01.456Z,17.40
2023-05-23T09:09:30.192Z,20.97
2023-05-23T09:12:00.448Z,22.13
2023-05-23T09:14:32.073Z,23.20
2023-05-23T09:17:04.809Z,23.13
2023-05-23T09:19:33.373Z,21.60
2023-05-23T09:22:13.582Z,26.90
2023-05-23T09:24:57.434Z,26.77
2023-05-23T09:27:24.990Z,31.07
2023-05-23T09:29:52.348Z,33.10
2023-05-23T09:32:21.451Z,31.43
2023-05-23T09:35:04.121Z,39.00
2023-05-23T09:37:40.960Z,39.80
2023-05-23T09:40:14.747Z,37.20
2023-05-23T09:42:53.291Z,42.30
2023-05-23T09:45:20.463Z,46.57
2023-05-23T09:47:54.157Z,39.37
2023-05-23T09:50:22.942Z,39.67
2023-05-23T09:52:53.892Z,48.10
2023-05-23T09:55:21.342Z,38.60
2023-05-23T09:57:56.658Z,37.90
2023-05-23T10:00:25.415Z,34.10
2023-05-23T10:03:01.779Z,30.20
2023-05-23T10:05:38.707Z,32.93
2023-05-23T10:08:12.127Z,24.13
2023-05-23T10:11:14.494Z,26.87
2023-05-23T10:13:44.865Z,20.70
2023-05-23T10:16:57.013Z,24.83
2023-05-23T10:20:13.546Z,15.70
2023-05-23T10:22:41.324Z,17.83
2023-05-23T10:25:13.616Z,18.57
2023-05-23T10:27:41.435Z,24.00
2023-05-23T10:30:09.914Z,11.73
2023-05-23T10:32:39.746Z,14.23
2023-05-23T10:35:19.354Z,12.93
2023-05-23T10:38:28.562Z,13.70
2023-05-23T10:41:24.607Z,14.80
2023-05-23T10:44:27.204Z,12.30
2023-05-23T10:47:02.288Z,17.93
2023-05-23T10:49:52.198Z,12.17
2023-05-23T10:52:19.355Z,12.07
2023-05-23T10:54:53.381Z,16.70
2023-05-23T10:57:23.498Z,12.17
2023-05-23T10:59:51.954Z,12.17
2023-05-23T11:02:26.966Z,16.20
2023-05-23T11:05:22.814Z,13.73
2023-05-23T11:08:16.268Z,14.83
2023-05-23T11:11:05.100Z,16.93
2023-05-23T11:14:02.950Z,13.23
2023-05-23T11:16:41.024Z,14.20
2023-05-23T11:19:20.478Z,12.57
2023-05-23T11:21:53.449Z,16.00
2023-05-23T11:24:20.914Z,13.50
2023-05-23T11:27:00.743Z,13.23
2023-05-23T11:29:31.726Z,13.57
2023-05-23T11:31:59.032Z,11.03
2023-05-23T11:34:26.677Z,18.00
2023-05-23T11:36:55.789Z,11.13
2023-05-23T11:39:23.750Z,14.67
2023-05-23T11:42:02.246Z,16.57
2023-05-23T11:44:30.012Z,11.93
2023-05-23T11:47:06.278Z,11.97
2023-05-23T11:49:38.124Z,17.87
2023-05-23T11:52:09.402Z,11.23
2023-05-23T11:54:36.678Z,12.70
2023-05-23T11:57:05.152Z,10.53
2023-05-23T11:59:32.255Z,12.60
2023-05-23T12:01:59.359Z,13.37
2023-05-23T12:04:27.280Z,11.17
2023-05-23T12:06:54.670Z,9.40
2023-05-23T12:09:21.878Z,11.90
2023-05-23T12:11:49.856Z,12.53
2023-05-23T12:14:18.195Z,10.17
2023-05-23T12:16:49.298Z,10.63
2023-05-23T12:19:19.680Z,12.10
2023-05-23T12:21:49.165Z,14.07
2023-05-23T12:24:21.245Z,10.77
2023-05-23T12:26:58.555Z,15.07
2023-05-23T12:29:35.600Z,11.33
2023-05-23T12:32:05.462Z,10.43
2023-05-23T12:34:32.695Z,12.47
2023-05-23T12:37:17.963Z,13.07
2023-05-23T12:39:47.138Z,11.80
2023-05-23T12:42:14.350Z,11.47
2023-05-23T12:44:43.709Z,13.50
2023-05-23T12:47:11.053Z,11.33
2023-05-23T12:49:38.946Z,13.20
2023-05-23T12:52:07.469Z,12.50
2023-05-23T12:54:34.621Z,15.10
2023-05-23T12:57:01.799Z,12.83
2023-05-23T12:59:29.074Z,15.90
2023-05-23T13:01:56.251Z,12.93
2023-05-23T13:04:23.499Z,13.07
2023-05-23T13:06:50.747Z,13.70
2023-05-23T13:09:17.994Z,15.00
2023-05-23T13:11:45.303Z,14.17
2023-05-23T13:14:13.723Z,12.20
2023-05-23T13:16:40.918Z,15.17
2023-05-23T13:19:08.183Z,11.53
2023-05-23T13:21:35.586Z,10.27
2023-05-23T13:24:02.712Z,12.20
2023-05-23T13:26:29.759Z,9.20
2023-05-23T13:28:56.822Z,10.00
2023-05-23T13:31:26.089Z,10.20
2023-05-23T13:33:53.335Z,8.53
2023-05-23T13:36:20.522Z,9.93
2023-05-23T13:38:47.734Z,10.93
2023-05-23T13:41:14.927Z,11.70
2023-05-23T13:43:42.211Z,10.00
2023-05-23T13:46:09.362Z,12.80
2023-05-23T13:48:36.578Z,10.07
2023-05-23T13:51:03.899Z,9.40
2023-05-23T13:53:31.691Z,8.27
2023-05-23T13:55:58.855Z,8.37
2023-05-23T13:58:26.190Z,8.30
2023-05-23T14:00:53.463Z,7.07
2023-05-23T14:03:20.925Z,9.43
2023-05-23T14:05:48.325Z,11.93
2023-05-23T14:08:15.710Z,9.60
2023-05-23T14:10:43.211Z,7.97
2023-05-23T14:13:10.995Z,6.87
2023-05-23T14:15:38.595Z,6.90
2023-05-23T14:18:06.009Z,8.27
2023-05-23T14:20:33.363Z,5.40
2023-05-23T14:23:00.535Z,4.90
2023-05-23T14:25:27.765Z,4.87
2023-05-23T14:27:54.923Z,2.20
2023-05-23T14:30:22.032Z,1.90
2023-05-23T14:32:49.925Z,4.03
2023-05-23T14:35:17.334Z,2.87
2023-05-23T14:37:46.722Z,3.17
2023-05-23T14:40:15.228Z,4.17
2023-05-23T14:42:42.646Z,4.60
2023-05-23T14:45:10.316Z,7.03
2023-05-23T14:47:37.864Z,4.37
2023-05-23T14:50:05.598Z,5.27
2023-05-23T14:52:32.706Z,9.30
2023-05-23T14:55:01.165Z,7.33
2023-05-23T14:57:28.738Z,7.13
2023-05-23T14:59:56.617Z,6.30
2023-05-23T15:02:23.951Z,10.33
2023-05-23T15:04:51.104Z,6.20
2023-05-23T15:07:18.457Z,5.20
2023-05-23T15:09:46.192Z,6.50
2023-05-23T15:12:15.297Z,6.10
2023-05-23T15:14:43.608Z,7.13
2023-05-23T15:17:13.044Z,6.30
2023-05-23T15:19:42.959Z,7.30
2023-05-23T15:22:18.726Z,8.47
2023-05-23T15:25:00.628Z,7.13
2023-05-23T15:27:27.722Z,7.93
2023-05-23T15:29:54.850Z,8.90
2023-05-23T15:32:22.354Z,7.03
2023-05-23T15:34:49.579Z,8.07
2023-05-23T15:37:17.656Z,6.00
2023-05-23T15:39:44.771Z,5.63
2023-05-23T15:42:11.984Z,6.67
2023-05-23T15:44:39.145Z,19.60
2023-05-23T15:47:06.292Z,5.73
2023-05-23T15:49:33.353Z,5.67
2023-05-23T15:52:00.804Z,6.23
2023-05-23T15:54:27.909Z,5.13
2023-05-23T15:56:54.993Z,4.30
2023-05-23T15:59:22.060Z,3.93
2023-05-23T16:01:49.188Z,6.87
2023-05-23T16:04:16.410Z,3.70
2023-05-23T16:06:43.602Z,3.50
2023-05-23T16:09:10.999Z,4.27
2023-05-23T16:11:38.077Z,14.83
2023-05-23T16:14:06.075Z,4.33
2023-05-23T16:16:33.211Z,5.30
2023-05-23T16:19:00.481Z,6.77
2023-05-23T16:21:27.532Z,4.60
2023-05-23T16:23:54.714Z,6.00
2023-05-23T16:26:21.890Z,6.40
2023-05-23T16:28:49.062Z,6.90
2023-05-23T16:31:16.910Z,9.77
2023-05-23T16:33:44.978Z,10.07
2023-05-23T16:36:12.106Z,7.60
2023-05-23T16:38:39.354Z,7.80
2023-05-23T16:41:06.434Z,11.37
2023-05-23T16:43:34.777Z,8.03
2023-05-23T16:46:02.151Z,8.03
2023-05-23T16:48:29.282Z,6.13
2023-05-23T16:50:57.856Z,6.03
2023-05-23T16:53:25.085Z,9.37
2023-05-23T16:55:52.439Z,6.07
2023-05-23T16:58:21.054Z,7.00
2023-05-23T17:00:48.819Z,6.07
2023-05-23T17:03:16.428Z,4.77
2023-05-23T17:05:44.290Z,5.20
2023-05-23T17:08:11.902Z,5.60
2023-05-23T17:10:39.117Z,6.03
2023-05-23T17:13:06.387Z,4.53
2023-05-23T17:15:33.526Z,6.73
2023-05-23T17:18:00.701Z,5.23
2023-05-23T17:20:28.167Z,5.27
2023-05-23T17:22:55.940Z,8.30
2023-05-23T17:25:23.182Z,5.80
2023-05-23T17:27:50.661Z,5.10
2023-05-23T17:30:18.692Z,6.77
2023-05-23T17:32:47.109Z,6.10
2023-05-23T17:35:14.565Z,9.50
2023-05-23T17:37:43.648Z,5.93
2023-05-23T17:40:12.463Z,5.30
2023-05-23T17:42:41.027Z,6.53
2023-05-23T17:45:09.917Z,7.60
2023-05-23T17:47:37.236Z,8.70
2023-05-23T17:50:06.350Z,6.60
2023-05-23T17:52:33.592Z,8.30
2023-05-23T17:55:01.257Z,7.63
2023-05-23T17:57:30.232Z,4.63
2023-05-23T17:59:58.332Z,4.17
2023-05-23T18:02:26.904Z,12.43
2023-05-23T18:04:55.031Z,4.00
2023-05-23T18:07:22.438Z,2.20
2023-05-23T18:09:50.371Z,2.83
2023-05-23T18:12:17.823Z,2.37
2023-05-23T18:14:45.690Z,3.33
2023-05-23T18:17:13.082Z,4.07
2023-05-23T18:19:40.598Z,4.50
2023-05-23T18:22:07.801Z,5.63
2023-05-23T18:24:34.847Z,6.53
2023-05-23T18:27:03.079Z,5.40
2023-05-23T18:29:30.365Z,6.27
2023-05-23T18:31:57.705Z,6.10
2023-05-23T18:34:26.482Z,7.23
2023-05-23T18:36:55.154Z,7.83
2023-05-23T18:39:22.271Z,10.27
2023-05-23T18:41:49.633Z,14.27
2023-05-23T18:44:20.095Z,10.20
2023-05-23T18:46:48.665Z,9.70
2023-05-23T18:49:16.117Z,14.23
2023-05-23T18:51:43.838Z,14.67
2023-05-23T18:54:11.589Z,13.53
2023-05-23T18:56:38.719Z,14.90
2023-05-23T18:59:05.903Z,25.00
2023-05-23T19:01:33.404Z,20.60
2023-05-23T19:04:00.625Z,20.07
2023-05-23T19:06:28.432Z,26.30
2023-05-23T19:08:55.620Z,32.10
2023-05-23T19:11:22.944Z,23.20
2023-05-23T19:13:50.540Z,27.40
2023-05-23T19:16:18.076Z,25.90
2023-05-23T19:18:45.811Z,31.83
2023-05-23T19:21:13.179Z,23.60
2023-05-23T19:23:40.705Z,27.77
2023-05-23T19:26:11.135Z,24.83
2023-05-23T19:28:41.329Z,35.73
2023-05-23T19:31:09.555Z,30.63
2023-05-23T19:33:37.029Z,24.60
2023-05-23T19:36:06.142Z,27.57
2023-05-23T19:38:34.192Z,23.03
2023-05-23T19:41:01.695Z,23.80
2023-05-23T19:43:29.335Z,31.73
2023-05-23T19:45:56.847Z,23.70
2023-05-23T19:48:24.099Z,19.80
2023-05-23T19:50:54.249Z,33.17
2023-05-23T19:53:22.976Z,20.70
2023-05-23T19:55:50.828Z,26.60
2023-05-23T19:58:18.721Z,23.87
2023-05-23T20:00:46.441Z,27.03
2023-05-23T20:03:13.932Z,27.73
2023-05-23T20:05:41.296Z,21.47
2023-05-23T20:08:09.173Z,20.70
2023-05-23T20:10:40.180Z,24.47
2023-05-23T20:13:07.776Z,20.90
2023-05-23T20:15:40.023Z,28.97
2023-05-23T20:18:08.535Z,28.73
2023-05-23T20:20:36.200Z,22.60
2023-05-23T20:23:03.867Z,16.03
2023-05-23T20:25:31.677Z,23.63
2023-05-23T20:27:58.940Z,24.07
2023-05-23T20:30:26.428Z,18.27
2023-05-23T20:32:54.596Z,27.07
2023-05-23T20:35:22.848Z,24.37
2023-05-23T20:37:53.729Z,24.87
2023-05-23T20:40:22.673Z,26.37
2023-05-23T20:42:50.162Z,27.77
2023-05-23T20:45:17.567Z,19.93
2023-05-23T20:47:44.933Z,22.20
2023-05-23T20:50:12.803Z,21.63
2023-05-23T20:52:43.073Z,13.40
2023-05-23T20:55:10.895Z,22.90
2023-05-23T20:57:38.570Z,21.47
2023-05-23T21:00:11.013Z,25.53
2023-05-23T21:02:42.893Z,20.00
2023-05-23T21:05:11.909Z,18.33
2023-05-23T21:07:39.569Z,23.10
2023-05-23T21:10:07.290Z,24.50
2023-05-23T21:12:34.835Z,16.10
2023-05-23T21:15:02.044Z,23.40
2023-05-23T21:17:29.158Z,17.60
2023-05-23T21:19:56.334Z,74.13
2023-05-23T21:22:23.559Z,96.97
2023-05-23T21:24:50.955Z,95.70
2023-05-23T21:27:18.088Z,78.47
2023-05-23T21:29:46.982Z,60.87
2023-05-23T21:32:14.260Z,79.63
2023-05-23T21:34:41.654Z,58.97
2023-05-23T21:37:09.246Z,36.10
2023-05-23T21:39:50.016Z,28.27
2023-05-23T21:42:19.141Z,25.90
2023-05-23T21:44:49.521Z,21.73
2023-05-23T21:47:17.199Z,17.53
2023-05-23T21:49:44.439Z,20.87
2023-05-23T21:52:11.583Z,19.60
2023-05-23T21:54:38.736Z,20.77
2023-05-23T21:57:06.135Z,23.33
2023-05-23T21:59:33.400Z,14.57
2023-05-23T22:02:01.088Z,18.00
2023-05-23T22:04:36.742Z,20.33
2023-05-23T22:07:04.051Z,18.33
2023-05-23T22:09:31.269Z,17.37
2023-05-23T22:11:58.390Z,18.60
2023-05-23T22:14:28.356Z,19.90
2023-05-23T22:16:56.212Z,24.53
2023-05-23T22:19:26.222Z,17.90
2023-05-23T22:21:55.635Z,30.10
2023-05-23T22:24:22.782Z,21.07
2023-05-23T22:26:52.161Z,18.43
2023-05-23T22:29:21.793Z,23.40
2023-05-23T22:31:49.018Z,23.63
2023-05-23T22:34:16.269Z,16.60
2023-05-23T22:36:43.345Z,28.23
2023-05-23T22:39:10.443Z,16.33
2023-05-23T22:41:37.680Z,17.73
2023-05-23T22:44:04.845Z,20.57
2023-05-23T22:46:32.106Z,17.53
2023-05-23T22:49:00.409Z,14.70
2023-05-23T22:51:27.626Z,14.20
2023-05-23T22:53:54.724Z,19.90
2023-05-23T22:56:22.113Z,17.73
2023-05-23T22:58:49.202Z,17.80
2023-05-23T23:01:16.435Z,17.57
2023-05-23T23:03:43.636Z,28.00
2023-05-23T23:06:11.075Z,16.87
2023-05-23T23:08:38.399Z,15.50
2023-05-23T23:11:05.680Z,18.37
2023-05-23T23:13:32.752Z,19.63
2023-05-23T23:15:59.879Z,17.07
2023-05-23T23:18:27.060Z,17.50
2023-05-23T23:20:56.790Z,14.37
2023-05-23T23:23:24.062Z,26.73
2023-05-23T23:25:52.364Z,10.97
2023-05-23T23:28:20.802Z,12.03
2023-05-23T23:30:48.157Z,16.40
2023-05-23T23:33:16.050Z,18.87
2023-05-23T23:35:45.603Z,15.73
2023-05-23T23:38:12.829Z,17.37
2023-05-23T23:40:40.141Z,19.17
2023-05-23T23:43:07.388Z,20.37
2023-05-23T23:45:34.464Z,13.67
2023-05-23T23:48:01.588Z,15.80
2023-05-23T23:50:28.743Z,16.80
2023-05-23T23:52:57.982Z,15.10
2023-05-23T23:55:25.081Z,10.93
2023-05-23T23:57:52.251Z,12.80
